Time;durP1;ratioP1;P1;durP2;ratioP2;P2;SDS_P1;SDS_P2;PMS_P1;PMS_P2;Temp;Humidity;BMP_temperature;BMP_pressure;BME280_temperature;BME280_humidity;BME280_pressure;Samples;Min_cycle;Max_cycle;Signal;HPM_P1;HPM_P2
2021/10/24 00:01:14;;;;;;;18.63;9.48;;;6.20;99.90;;;;;;5028629;28;20124;-80
2021/10/24 00:03:40;;;;;;;19.23;9.70;;;6.10;99.90;;;;;;5029637;28;20026;-80
2021/10/24 00:06:05;;;;;;;16.55;8.65;;;6.10;99.90;;;;;;5029552;28;20034;-80
2021/10/24 00:08:30;;;;;;;16.58;8.48;;;6.10;99.90;;;;;;5029167;28;20439;-80
2021/10/24 00:10:57;;;;;;;14.32;8.82;;;6.10;99.90;;;;;;5029472;28;20033;-80
2021/10/24 00:13:22;;;;;;;15.23;8.00;;;6.10;99.90;;;;;;5028355;28;20049;-80
2021/10/24 00:15:48;;;;;;;12.90;8.02;;;6.00;99.90;;;;;;5029140;28;20114;-79
2021/10/24 00:18:13;;;;;;;12.77;7.95;;;6.00;99.90;;;;;;5028919;28;20395;-79
2021/10/24 00:20:39;;;;;;;15.40;7.93;;;6.00;99.90;;;;;;5029449;28;20036;-79
2021/10/24 00:23:04;;;;;;;12.95;7.55;;;6.00;99.90;;;;;;5028828;28;20032;-79
2021/10/24 00:25:30;;;;;;;14.90;8.90;;;6.00;99.90;;;;;;5029915;28;20029;-79
2021/10/24 00:27:56;;;;;;;18.08;8.13;;;6.00;99.90;;;;;;5027492;28;20033;-79
2021/10/24 00:30:21;;;;;;;14.50;7.22;;;6.00;99.90;;;;;;5029672;28;20033;-78
2021/10/24 00:32:47;;;;;;;11.05;7.38;;;6.00;99.90;;;;;;5028921;28;20069;-79
2021/10/24 00:35:12;;;;;;;15.48;7.38;;;6.00;99.90;;;;;;5029467;28;20038;-79
2021/10/24 00:37:38;;;;;;;13.40;6.65;;;6.00;99.90;;;;;;5028961;28;20431;-78
2021/10/24 00:40:05;;;;;;;13.65;6.80;;;6.00;99.90;;;;;;5027638;28;20045;-79
2021/10/24 00:42:30;;;;;;;12.10;7.20;;;6.00;99.90;;;;;;5029264;28;20030;-79
2021/10/24 00:44:56;;;;;;;12.05;7.05;;;6.00;99.90;;;;;;5029857;28;20029;-79
2021/10/24 00:47:22;;;;;;;10.98;6.55;;;6.00;99.90;;;;;;5029356;28;20029;-78
2021/10/24 00:49:49;;;;;;;12.60;6.88;;;6.00;99.90;;;;;;5028848;28;20545;-79
2021/10/24 00:52:16;;;;;;;9.85;6.22;;;6.00;99.90;;;;;;5029302;28;20049;-78
2021/10/24 00:54:43;;;;;;;11.60;6.78;;;6.00;99.90;;;;;;5029530;28;20033;-79
2021/10/24 00:57:10;;;;;;;10.48;6.25;;;6.00;99.90;;;;;;5029084;28;20069;-79
2021/10/24 00:59:38;;;;;;;11.75;6.47;;;6.00;99.90;;;;;;5028412;28;20024;-79
2021/10/24 01:02:03;;;;;;;8.93;6.15;;;5.90;99.90;;;;;;5028707;28;20055;-78
2021/10/24 01:04:30;;;;;;;16.52;6.75;;;5.90;99.90;;;;;;5033256;28;20459;-79
2021/10/24 01:07:02;;;;;;;10.65;5.90;;;5.90;99.90;;;;;;5033202;28;20026;-79
2021/10/24 01:09:29;;;;;;;10.27;6.45;;;5.90;99.90;;;;;;5031487;28;20029;-79
2021/10/24 01:11:54;;;;;;;12.20;6.88;;;5.90;99.90;;;;;;5032790;28;20025;-78
2021/10/24 01:14:20;;;;;;;10.38;6.60;;;5.90;99.90;;;;;;5032778;28;20045;-78
2021/10/24 01:16:46;;;;;;;15.30;7.10;;;5.80;99.90;;;;;;5031751;28;20117;-78
2021/10/24 01:19:13;;;;;;;10.43;6.45;;;5.80;99.90;;;;;;5032203;28;20090;-78
2021/10/24 01:21:39;;;;;;;15.98;6.40;;;5.80;99.90;;;;;;5032657;28;20045;-78
2021/10/24 01:24:05;;;;;;;8.45;5.70;;;5.80;99.90;;;;;;5031447;28;20029;-78
2021/10/24 01:26:34;;;;;;;10.75;6.32;;;5.80;99.90;;;;;;5032687;28;20041;-78
2021/10/24 01:29:00;;;;;;;12.05;6.00;;;5.80;99.90;;;;;;5031695;28;20029;-78
2021/10/24 01:31:25;;;;;;;8.60;5.65;;;5.80;99.90;;;;;;5032446;28;20386;-78
2021/10/24 01:33:51;;;;;;;10.98;6.80;;;5.80;99.90;;;;;;5032452;28;20037;-78
2021/10/24 01:36:16;;;;;;;11.15;6.47;;;5.70;99.90;;;;;;5032748;28;20029;-78
2021/10/24 01:38:49;;;;;;;11.27;6.03;;;5.70;99.90;;;;;;5032104;28;20580;-78
2021/10/24 01:41:15;;;;;;;;;;;5.70;99.90;;;;;;5032826;28;20029;-78
2021/10/24 01:43:40;;;;;;;12.85;6.25;;;5.70;99.90;;;;;;5033402;28;20477;-79
2021/10/24 01:46:06;;;;;;;11.90;5.75;;;5.60;99.90;;;;;;5032639;28;20033;-78
2021/10/24 01:48:31;;;;;;;9.93;6.03;;;5.60;99.90;;;;;;5031645;28;20038;-78
2021/10/24 01:50:58;;;;;;;6.35;5.43;;;5.60;99.90;;;;;;5032005;28;20029;-78
2021/10/24 01:53:32;;;;;;;17.20;6.00;;;5.50;99.90;;;;;;5032384;28;20095;-79
2021/10/24 01:55:58;;;;;;;8.77;5.28;;;5.50;99.90;;;;;;5032439;28;20467;-78
2021/10/24 01:58:23;;;;;;;9.75;5.72;;;5.50;99.90;;;;;;5033802;28;20029;-78
2021/10/24 02:00:50;;;;;;;11.68;6.95;;;5.50;99.90;;;;;;5032326;28;20510;-78
2021/10/24 02:03:16;;;;;;;13.88;5.65;;;5.50;99.90;;;;;;5031948;28;20099;-78
2021/10/24 02:05:42;;;;;;;13.35;5.88;;;5.40;99.90;;;;;;5030885;28;20037;-78
2021/10/24 02:08:08;;;;;;;11.13;5.80;;;5.40;99.90;;;;;;5031018;28;20569;-79
2021/10/24 02:10:35;;;;;;;13.55;6.30;;;5.40;99.90;;;;;;5032012;28;20624;-79
2021/10/24 02:13:02;;;;;;;11.98;5.75;;;5.40;99.90;;;;;;5031446;28;20033;-78
2021/10/24 02:15:27;;;;;;;7.93;5.50;;;5.40;99.90;;;;;;5031523;28;20036;-78
2021/10/24 02:17:53;;;;;;;10.57;6.55;;;5.40;99.90;;;;;;5031538;28;20034;-79
2021/10/24 02:20:18;;;;;;;14.90;6.35;;;5.40;99.90;;;;;;5031753;28;20462;-79
2021/10/24 02:22:44;;;;;;;10.10;6.28;;;5.30;99.90;;;;;;5032042;28;20044;-79
2021/10/24 02:25:10;;;;;;;10.60;6.40;;;5.30;99.90;;;;;;5031214;28;20030;-78
2021/10/24 02:27:37;;;;;;;16.17;6.82;;;5.30;99.90;;;;;;5031193;28;20029;-78
2021/10/24 02:30:04;;;;;;;12.07;6.82;;;5.30;99.90;;;;;;5030761;28;20033;-79
2021/10/24 02:32:29;;;;;;;11.27;6.65;;;5.20;99.90;;;;;;5031624;28;20025;-79
2021/10/24 02:34:54;;;;;;;9.48;6.22;;;5.20;99.90;;;;;;5031960;28;20030;-78
2021/10/24 02:37:20;;;;;;;12.55;6.55;;;5.20;99.90;;;;;;5031734;28;20067;-78
2021/10/24 02:39:45;;;;;;;12.55;6.20;;;5.20;99.90;;;;;;5030641;28;20509;-79
2021/10/24 02:42:11;;;;;;;9.15;5.43;;;5.20;99.90;;;;;;5030765;28;20104;-78
2021/10/24 02:44:37;;;;;;;12.85;5.95;;;5.10;99.90;;;;;;5031315;28;20032;-78
2021/10/24 02:47:03;;;;;;;9.73;6.47;;;5.20;99.90;;;;;;5029554;28;20033;-78
2021/10/24 02:49:29;;;;;;;8.85;5.97;;;5.10;99.90;;;;;;5030695;28;20032;-79
2021/10/24 02:51:54;;;;;;;11.65;6.30;;;5.10;99.90;;;;;;5029935;28;20025;-78
2021/10/24 02:54:20;;;;;;;13.02;7.03;;;5.10;99.90;;;;;;5030907;28;20120;-79
2021/10/24 02:56:46;;;;;;;12.02;6.05;;;5.10;99.90;;;;;;5031212;28;20033;-78
2021/10/24 02:59:13;;;;;;;9.07;6.40;;;5.00;99.90;;;;;;5029924;28;20125;-80
2021/10/24 03:01:38;;;;;;;10.93;6.07;;;5.00;99.90;;;;;;5030932;28;20490;-79
2021/10/24 03:04:04;;;;;;;9.32;5.97;;;5.00;99.90;;;;;;5030008;28;20103;-79
2021/10/24 03:06:30;;;;;;;10.52;6.13;;;5.00;99.90;;;;;;5031449;28;20060;-79
2021/10/24 03:08:56;;;;;;;7.65;5.88;;;4.90;99.90;;;;;;5030485;28;20025;-78
2021/10/24 03:11:21;;;;;;;9.98;5.82;;;4.90;99.90;;;;;;5030365;28;20113;-79
2021/10/24 03:13:47;;;;;;;11.75;6.13;;;4.90;99.90;;;;;;5030883;28;20033;-78
2021/10/24 03:16:12;;;;;;;10.88;5.80;;;4.90;99.90;;;;;;5030508;28;20051;-78
2021/10/24 03:18:38;;;;;;;7.80;5.20;;;4.80;99.90;;;;;;5030516;28;20398;-78
2021/10/24 03:21:04;;;;;;;15.00;6.68;;;4.80;99.90;;;;;;5029911;28;20079;-78
2021/10/24 03:23:30;;;;;;;11.40;5.75;;;4.70;99.90;;;;;;5031031;28;20030;-78
2021/10/24 03:25:55;;;;;;;12.10;5.88;;;4.70;99.90;;;;;;5029582;28;20473;-78
2021/10/24 03:28:21;;;;;;;10.98;5.65;;;4.70;99.90;;;;;;5029671;28;20059;-79
2021/10/24 03:30:46;;;;;;;8.70;6.05;;;4.70;99.90;;;;;;5030269;28;20083;-79
2021/10/24 03:33:12;;;;;;;7.45;5.35;;;4.70;99.90;;;;;;5030093;28;20045;-78
2021/10/24 03:35:37;;;;;;;10.45;4.85;;;4.70;99.90;;;;;;5030574;28;20372;-78
2021/10/24 03:38:03;;;;;;;9.48;5.88;;;4.70;99.90;;;;;;5029621;28;20414;-78
2021/10/24 03:40:29;;;;;;;15.15;6.75;;;4.70;99.90;;;;;;5030114;28;20029;-78
2021/10/24 03:42:54;;;;;;;9.30;5.63;;;4.60;99.90;;;;;;5030265;28;20390;-78
2021/10/24 03:45:20;;;;;;;16.20;7.05;;;4.60;99.90;;;;;;5029975;28;20033;-78
2021/10/24 03:47:46;;;;;;;9.48;5.18;;;4.60;99.90;;;;;;5029383;28;20029;-79
2021/10/24 03:50:12;;;;;;;13.25;5.65;;;4.50;99.90;;;;;;5029949;28;20039;-79
2021/10/24 03:52:37;;;;;;;8.32;5.65;;;4.50;99.90;;;;;;5029902;28;20108;-79
2021/10/24 03:55:09;;;;;;;11.23;5.07;;;4.50;99.90;;;;;;5029812;28;20064;-78
2021/10/24 03:57:35;;;;;;;6.80;4.28;;;4.50;99.90;;;;;;5029605;28;20049;-79
2021/10/24 04:00:00;;;;;;;13.85;5.53;;;4.50;99.90;;;;;;5027990;28;20068;-79
2021/10/24 04:02:26;;;;;;;11.15;5.15;;;4.40;99.90;;;;;;5032171;28;20055;-78
2021/10/24 04:04:52;;;;;;;10.60;5.45;;;4.40;99.90;;;;;;5010370;28;20038;-78
2021/10/24 04:07:17;;;;;;;11.23;5.90;;;4.40;99.90;;;;;;5010040;28;20115;-78
2021/10/24 04:09:43;;;;;;;8.00;5.30;;;4.40;99.90;;;;;;5009741;28;20112;-79
2021/10/24 04:12:09;;;;;;;9.20;5.32;;;4.40;99.90;;;;;;5009835;28;20042;-79
2021/10/24 04:14:34;;;;;;;10.85;5.75;;;4.40;99.90;;;;;;5010186;28;20426;-78
2021/10/24 04:16:59;;;;;;;8.43;4.93;;;4.40;99.90;;;;;;5009518;28;20034;-78
2021/10/24 04:19:25;;;;;;;6.65;4.68;;;4.50;99.90;;;;;;5009872;28;20030;-78
2021/10/24 04:21:50;;;;;;;6.10;4.93;;;4.40;99.90;;;;;;5009547;28;20103;-78
2021/10/24 04:24:16;;;;;;;8.57;5.47;;;4.40;99.90;;;;;;5009790;28;20026;-78
2021/10/24 04:26:42;;;;;;;8.90;5.40;;;4.50;99.90;;;;;;5009880;28;20042;-78
2021/10/24 04:29:07;;;;;;;12.60;4.97;;;4.40;99.90;;;;;;5008944;28;20044;-78
2021/10/24 04:31:32;;;;;;;7.05;5.68;;;4.40;99.90;;;;;;5009854;28;20069;-79
2021/10/24 04:33:58;;;;;;;8.80;5.15;;;4.50;99.90;;;;;;5009811;28;20042;-79
2021/10/24 04:36:23;;;;;;;10.73;5.50;;;4.40;99.90;;;;;;5018666;28;20080;-79
2021/10/24 04:38:49;;;;;;;13.65;6.05;;;4.40;99.90;;;;;;5035763;28;20033;-79
2021/10/24 04:41:15;;;;;;;8.48;4.85;;;4.40;99.90;;;;;;5035518;28;20494;-79
2021/10/24 04:43:40;;;;;;;8.23;4.38;;;4.40;99.90;;;;;;5036397;28;20025;-79
2021/10/24 04:46:06;;;;;;;6.93;3.80;;;4.40;99.90;;;;;;5035890;28;20040;-78
2021/10/24 04:48:31;;;;;;;7.43;5.25;;;4.40;99.90;;;;;;5035713;28;20033;-78
2021/10/24 04:50:57;;;;;;;5.10;4.07;;;4.30;99.90;;;;;;5035787;28;20034;-79
2021/10/24 04:53:23;;;;;;;10.98;4.78;;;4.30;99.90;;;;;;5035662;28;20041;-78
2021/10/24 04:55:49;;;;;;;7.00;4.47;;;4.30;99.90;;;;;;5035864;28;20030;-78
2021/10/24 04:58:15;;;;;;;6.60;4.22;;;4.30;99.90;;;;;;5033617;28;20663;-79
2021/10/24 05:00:40;;;;;;;6.60;5.10;;;4.30;99.90;;;;;;5035769;28;20026;-78
2021/10/24 05:03:06;;;;;;;8.20;4.85;;;4.30;99.90;;;;;;5035309;28;20037;-78
2021/10/24 05:05:31;;;;;;;5.05;4.35;;;4.20;99.90;;;;;;5034489;28;20561;-78
2021/10/24 05:07:57;;;;;;;12.20;5.35;;;4.30;99.90;;;;;;5035111;28;20124;-78
2021/10/24 05:10:22;;;;;;;9.30;4.88;;;4.20;99.90;;;;;;5035546;28;20037;-78
2021/10/24 05:12:48;;;;;;;6.78;4.38;;;4.20;99.90;;;;;;5035145;28;20034;-78
2021/10/24 05:15:13;;;;;;;9.55;4.95;;;4.20;99.90;;;;;;5035810;28;20029;-79
2021/10/24 05:17:39;;;;;;;8.00;4.32;;;4.10;99.90;;;;;;5035347;28;20040;-78
2021/10/24 05:20:06;;;;;;;8.48;4.65;;;4.10;99.90;;;;;;5035202;28;20029;-78
2021/10/24 05:22:32;;;;;;;8.55;4.57;;;4.10;99.90;;;;;;5035422;28;20091;-78
2021/10/24 05:24:57;;;;;;;6.00;4.20;;;4.10;99.90;;;;;;5036074;28;20035;-78
2021/10/24 05:27:23;;;;;;;9.50;4.45;;;4.10;99.90;;;;;;5035306;28;20678;-79
2021/10/24 05:29:49;;;;;;;9.85;4.25;;;4.10;99.90;;;;;;5034901;28;20037;-78
2021/10/24 05:32:14;;;;;;;8.63;5.45;;;4.10;99.90;;;;;;5034709;28;20021;-78
2021/10/24 05:34:40;;;;;;;7.28;4.50;;;4.10;99.90;;;;;;5035578;28;20033;-79
2021/10/24 05:37:05;;;;;;;10.68;4.68;;;4.10;99.90;;;;;;5035016;28;20049;-79
2021/10/24 05:39:31;;;;;;;7.18;4.50;;;4.10;99.90;;;;;;5033708;28;20029;-78
2021/10/24 05:41:57;;;;;;;6.90;4.65;;;4.00;99.90;;;;;;5035105;28;20041;-78
2021/10/24 05:44:23;;;;;;;8.23;4.35;;;4.00;99.90;;;;;;5035171;28;20112;-78
2021/10/24 05:46:48;;;;;;;7.40;4.05;;;4.10;99.90;;;;;;5035447;28;20029;-78
2021/10/24 05:49:15;;;;;;;6.47;3.60;;;4.10;99.90;;;;;;5031474;28;20382;-79
2021/10/24 05:51:42;;;;;;;6.50;4.00;;;4.10;99.90;;;;;;5031974;28;20029;-78
2021/10/24 05:54:08;;;;;;;8.85;4.18;;;4.10;99.90;;;;;;5032040;28;20124;-78
2021/10/24 05:56:34;;;;;;;4.13;3.20;;;4.10;99.90;;;;;;5030754;28;20033;-78
2021/10/24 05:59:00;;;;;;;10.18;3.80;;;4.10;99.90;;;;;;5031697;28;20057;-78
2021/10/24 06:01:26;;;;;;;6.95;3.95;;;4.20;99.90;;;;;;5031313;28;20102;-78
2021/10/24 06:03:52;;;;;;;6.95;3.63;;;4.20;99.90;;;;;;5032241;28;20064;-78
2021/10/24 06:06:18;;;;;;;9.93;4.07;;;4.20;99.90;;;;;;5031140;28;20069;-78
2021/10/24 06:08:43;;;;;;;6.25;4.07;;;4.20;99.90;;;;;;5036319;28;20021;-78
2021/10/24 06:11:25;;;;;;;10.60;4.28;;;4.30;99.90;;;;;;5049840;28;20377;-78
2021/10/24 06:13:51;;;;;;;8.27;3.55;;;4.30;99.90;;;;;;5052047;28;20063;-78
2021/10/24 06:16:16;;;;;;;9.43;4.68;;;4.30;99.90;;;;;;5051238;28;20063;-78
2021/10/24 06:18:42;;;;;;;7.90;4.78;;;4.30;99.90;;;;;;5051175;28;20041;-78
2021/10/24 06:21:08;;;;;;;7.60;4.40;;;4.40;99.90;;;;;;5050987;28;20041;-78
2021/10/24 06:23:34;;;;;;;7.30;4.25;;;4.40;99.90;;;;;;5051536;28;20052;-78
2021/10/24 06:26:00;;;;;;;8.27;4.90;;;4.40;99.90;;;;;;5066541;28;20029;-78
2021/10/24 06:28:26;;;;;;;10.63;5.80;;;4.40;99.90;;;;;;5037568;28;20486;-78
2021/10/24 06:30:52;;;;;;;5.22;4.22;;;4.50;99.90;;;;;;5031505;28;20030;-78
2021/10/24 06:33:18;;;;;;;5.60;4.07;;;4.50;99.90;;;;;;5031096;28;20065;-78
2021/10/24 06:35:45;;;;;;;8.60;3.92;;;4.60;99.90;;;;;;5031695;28;20386;-78
2021/10/24 06:38:11;;;;;;;6.88;4.50;;;4.60;99.90;;;;;;5030691;28;20083;-78
2021/10/24 06:40:36;;;;;;;7.40;4.47;;;4.60;99.90;;;;;;5031182;28;20482;-78
2021/10/24 06:43:02;;;;;;;9.32;4.70;;;4.60;99.90;;;;;;5030649;28;20064;-78
2021/10/24 06:45:28;;;;;;;8.38;4.25;;;4.60;99.90;;;;;;5031270;28;20030;-78
2021/10/24 06:47:53;;;;;;;9.88;5.18;;;4.60;99.90;;;;;;5030438;28;20026;-78
2021/10/24 06:50:19;;;;;;;7.43;4.07;;;4.70;99.90;;;;;;5031056;28;20033;-78
2021/10/24 06:52:44;;;;;;;8.55;5.03;;;4.70;99.90;;;;;;5031046;28;20038;-79
2021/10/24 06:55:10;;;;;;;8.75;4.28;;;4.70;99.90;;;;;;5031189;28;20038;-78
2021/10/24 06:57:47;;;;;;;9.38;4.57;;;4.70;99.90;;;;;;5030545;28;20025;-78
2021/10/24 07:00:13;;;;;;;6.68;4.43;;;4.80;99.90;;;;;;5030827;28;20120;-78
2021/10/24 07:02:38;;;;;;;11.48;4.65;;;4.80;99.90;;;;;;5029880;28;20061;-78
2021/10/24 07:05:04;;;;;;;11.50;5.15;;;4.80;99.90;;;;;;5046299;28;20418;-78
2021/10/24 07:07:29;;;;;;;7.03;3.90;;;4.90;99.90;;;;;;5030454;28;20033;-78
2021/10/24 07:09:55;;;;;;;8.82;4.70;;;4.90;99.90;;;;;;5030945;28;20088;-78
2021/10/24 07:12:21;;;;;;;7.07;4.80;;;4.90;99.90;;;;;;5030702;28;20108;-78
2021/10/24 07:14:46;;;;;;;7.50;5.18;;;5.00;99.90;;;;;;5030596;28;20029;-78
2021/10/24 07:17:11;;;;;;;12.50;5.00;;;5.00;99.90;;;;;;5045921;28;20034;-78
2021/10/24 07:19:37;;;;;;;9.65;4.70;;;5.00;99.90;;;;;;5030038;28;20033;-78
2021/10/24 07:22:02;;;;;;;7.82;4.47;;;5.10;99.90;;;;;;5029808;28;20524;-78
2021/10/24 07:24:28;;;;;;;9.80;4.93;;;5.10;99.90;;;;;;5030890;28;20037;-78
2021/10/24 07:26:54;;;;;;;9.35;4.43;;;5.20;99.90;;;;;;5029498;28;20061;-78
2021/10/24 07:29:20;;;;;;;6.70;3.80;;;5.20;99.90;;;;;;5028886;28;20026;-79
2021/10/24 07:31:45;;;;;;;9.30;4.68;;;5.30;99.90;;;;;;5029995;28;20022;-79
2021/10/24 07:34:11;;;;;;;7.50;4.65;;;5.30;99.90;;;;;;5029390;28;20041;-78
2021/10/24 07:36:36;;;;;;;10.70;4.95;;;5.40;99.90;;;;;;5030432;28;20064;-78
2021/10/24 07:39:02;;;;;;;9.77;4.18;;;5.50;99.90;;;;;;5029965;28;20040;-78
2021/10/24 07:41:28;;;;;;;8.73;5.03;;;5.50;99.90;;;;;;5030458;28;20035;-79
2021/10/24 07:43:53;;;;;;;5.97;4.50;;;5.60;99.90;;;;;;5029318;28;20037;-78
2021/10/24 07:46:19;;;;;;;8.27;4.85;;;5.60;99.90;;;;;;5030365;28;20029;-78
2021/10/24 07:48:44;;;;;;;8.48;4.97;;;5.70;99.90;;;;;;5029618;28;20462;-78
2021/10/24 07:51:10;;;;;;;7.25;4.43;;;5.80;99.90;;;;;;5030029;28;20024;-78
2021/10/24 07:53:35;;;;;;;8.73;4.22;;;5.80;99.90;;;;;;5030042;28;20643;-78
2021/10/24 07:56:02;;;;;;;9.13;4.60;;;5.80;99.90;;;;;;5030169;28;20029;-78
2021/10/24 07:58:29;;;;;;;7.05;4.47;;;5.90;99.90;;;;;;5028999;28;20052;-78
2021/10/24 08:00:55;;;;;;;10.18;4.30;;;6.00;99.90;;;;;;5029872;28;20037;-78
2021/10/24 08:03:21;;;;;;;6.18;4.43;;;6.00;99.80;;;;;;5030091;28;20457;-78
2021/10/24 08:05:46;;;;;;;6.82;4.00;;;6.10;99.70;;;;;;5029833;28;20052;-78
2021/10/24 08:08:12;;;;;;;5.75;3.70;;;6.20;99.70;;;;;;5042130;28;20405;-78
2021/10/24 08:10:37;;;;;;;9.43;4.00;;;6.20;99.60;;;;;;5048562;28;20087;-78
2021/10/24 08:13:03;;;;;;;7.60;3.83;;;6.30;99.40;;;;;;5048472;28;20480;-78
2021/10/24 08:15:29;;;;;;;6.35;2.97;;;6.40;99.40;;;;;;5049167;28;20087;-79
2021/10/24 08:17:55;;;;;;;4.20;2.95;;;6.50;99.50;;;;;;5047568;28;20111;-78
2021/10/24 08:20:20;;;;;;;8.82;3.67;;;6.60;99.30;;;;;;5029605;28;20127;-78
2021/10/24 08:22:46;;;;;;;4.80;3.00;;;6.70;99.20;;;;;;5029141;28;20748;-79
2021/10/24 08:25:13;;;;;;;5.88;3.63;;;6.80;99.10;;;;;;5029530;28;20073;-79
2021/10/24 08:27:39;;;;;;;6.72;3.60;;;6.90;99.00;;;;;;5028976;28;20028;-79
2021/10/24 08:30:08;;;;;;;6.82;3.47;;;7.00;98.90;;;;;;5029159;28;20426;-78
2021/10/24 08:32:34;;;;;;;7.32;3.45;;;7.00;98.90;;;;;;5028835;28;20025;-79
2021/10/24 08:35:00;;;;;;;6.90;3.58;;;7.10;98.90;;;;;;5029107;28;20040;-79
2021/10/24 08:37:26;;;;;;;6.80;3.10;;;7.20;98.80;;;;;;5029794;28;20091;-79
2021/10/24 08:39:56;;;;;;;7.95;3.67;;;7.30;98.80;;;;;;5027591;28;20034;-79
2021/10/24 08:42:28;;;;;;;5.97;3.63;;;7.40;98.80;;;;;;5029381;28;20095;-79
2021/10/24 08:44:55;;;;;;;6.18;3.42;;;7.50;98.90;;;;;;5029270;28;20022;-79
2021/10/24 08:47:21;;;;;;;6.55;3.88;;;7.50;98.70;;;;;;5029307;28;20036;-79
2021/10/24 08:49:47;;;;;;;6.72;3.83;;;7.70;98.60;;;;;;5028403;28;20061;-79
2021/10/24 08:52:15;;;;;;;5.97;3.67;;;7.80;98.60;;;;;;5028712;28;20067;-79
2021/10/24 08:54:42;;;;;;;8.27;3.85;;;7.90;98.70;;;;;;5029283;28;20422;-79
2021/10/24 08:57:08;;;;;;;5.90;3.78;;;8.00;98.50;;;;;;5029253;28;20026;-79
2021/10/24 08:59:33;;;;;;;5.50;2.85;;;8.10;98.20;;;;;;5028636;28;20032;-80
2021/10/24 09:01:59;;;;;;;8.57;3.13;;;8.20;97.70;;;;;;5028618;28;20426;-80
2021/10/24 09:04:25;;;;;;;5.05;2.58;;;8.40;97.20;;;;;;5029592;28;20112;-79
2021/10/24 09:06:59;;;;;;;4.07;2.75;;;8.50;97.00;;;;;;5029323;28;20147;-80
2021/10/24 09:09:35;;;;;;;6.18;2.65;;;8.60;96.80;;;;;;5028441;28;20060;-79
2021/10/24 09:12:05;;;;;;;6.00;2.30;;;8.70;96.40;;;;;;5028856;28;20033;-80
2021/10/24 09:14:46;;;;;;;5.32;3.15;;;8.90;96.10;;;;;;5029343;28;20104;-80
2021/10/24 09:17:18;;;;;;;7.50;2.72;;;9.10;96.00;;;;;;5028930;28;20240;-80
2021/10/24 09:19:46;;;;;;;3.97;2.13;;;9.20;95.30;;;;;;5028624;28;20065;-81
2021/10/24 09:22:14;;;;;;;6.63;2.40;;;9.30;95.10;;;;;;5028831;28;20136;-80
2021/10/24 09:25:05;;;;;;;5.80;1.55;;;9.50;94.10;;;;;;5030961;28;20025;-81
2021/10/24 09:27:37;;;;;;;4.70;2.40;;;9.60;94.30;;;;;;5032455;28;20030;-81
2021/10/24 09:30:14;;;;;;;;;;;9.80;94.40;;;;;;5031283;28;20030;-80
2021/10/24 09:32:50;;;;;;;3.72;1.90;;;9.90;93.80;;;;;;5031544;28;19959;-80
2021/10/24 09:35:16;;;;;;;4.45;1.92;;;9.90;94.10;;;;;;5032113;28;20084;-80
2021/10/24 09:37:48;;;;;;;5.43;2.30;;;10.10;93.80;;;;;;5032152;28;20052;-80
2021/10/24 09:40:22;;;;;;;3.17;1.98;;;10.20;93.30;;;;;;5032418;28;20402;-81
2021/10/24 09:42:48;;;;;;;5.63;2.28;;;10.30;92.90;;;;;;5031394;28;20025;-81
2021/10/24 09:45:15;;;;;;;3.60;2.35;;;10.50;92.60;;;;;;5032190;28;20036;-80
2021/10/24 09:47:43;;;;;;;3.45;1.80;;;10.60;92.10;;;;;;5031814;28;20057;-81
2021/10/24 09:50:39;;;;;;;4.32;1.73;;;10.70;92.50;;;;;;5032126;28;20065;-80
2021/10/24 09:53:26;;;;;;;9.23;1.83;;;10.90;92.00;;;;;;5031947;28;20155;-80
2021/10/24 09:56:00;;;;;;;4.00;1.85;;;11.00;91.90;;;;;;5032365;28;20034;-80
2021/10/24 09:58:28;;;;;;;4.38;1.35;;;11.20;91.50;;;;;;5031357;28;20045;-79
2021/10/24 10:00:54;;;;;;;3.08;1.75;;;11.30;91.10;;;;;;5032214;28;20078;-80
2021/10/24 10:03:21;;;;;;;4.00;1.27;;;11.40;90.70;;;;;;5045599;28;20044;-80
2021/10/24 10:05:47;;;;;;;5.00;2.55;;;11.50;90.40;;;;;;5052641;28;20032;-81
2021/10/24 10:08:17;;;;;;;3.75;2.05;;;11.50;90.30;;;;;;5051237;28;20095;-80
2021/10/24 10:10:54;;;;;;;2.85;1.58;;;11.60;90.60;;;;;;5051775;28;20033;-80
2021/10/24 10:13:25;;;;;;;3.25;1.75;;;11.70;90.40;;;;;;5037411;28;20039;-81
2021/10/24 10:15:52;;;;;;;6.15;2.00;;;11.80;90.30;;;;;;5032144;28;20045;-80
2021/10/24 10:18:18;;;;;;;8.65;1.77;;;11.80;89.80;;;;;;5031144;28;20036;-81
2021/10/24 10:20:52;;;;;;;3.95;1.90;;;12.00;90.40;;;;;;5031050;28;20068;-81
2021/10/24 10:23:21;;;;;;;5.53;1.83;;;12.00;90.00;;;;;;5030748;28;20061;-81
2021/10/24 10:25:50;;;;;;;2.72;1.58;;;12.10;90.10;;;;;;5031515;28;20390;-80
2021/10/24 10:28:45;;;;;;;4.10;1.95;;;12.20;89.80;;;;;;5030996;28;20386;-81
2021/10/24 10:31:16;;;;;;;3.92;1.65;;;12.30;90.00;;;;;;5030821;28;20025;-81
2021/10/24 10:34:06;;;;;;;3.85;1.83;;;12.40;88.90;;;;;;5031864;28;20075;-81
2021/10/24 10:36:43;;;;;;;4.55;1.60;;;12.50;89.60;;;;;;5031282;28;20164;-81
2021/10/24 10:39:32;;;;;;;2.30;2.10;;;12.60;88.40;;;;;;5031017;28;20021;-81
2021/10/24 10:42:22;;;;;;;4.15;1.70;;;12.60;88.30;;;;;;5030684;28;20033;-81
2021/10/24 10:45:15;;;;;;;5.38;1.67;;;12.70;89.10;;;;;;5031624;28;20044;-81
2021/10/24 10:48:00;;;;;;;6.63;1.42;;;12.70;89.30;;;;;;5030984;28;20053;-80
2021/10/24 10:50:38;;;;;;;2.30;1.52;;;12.70;88.80;;;;;;5030218;28;20026;-81
2021/10/24 10:53:08;;;;;;;5.50;1.90;;;12.80;87.20;;;;;;5029659;28;20025;-82
2021/10/24 10:56:06;;;;;;;4.90;1.20;;;12.80;86.80;;;;;;5030725;28;20047;-81
2021/10/24 10:58:32;;;;;;;3.80;1.10;;;12.90;87.70;;;;;;5029497;28;20037;-82
2021/10/24 11:00:58;;;;;;;2.10;1.13;;;13.00;87.60;;;;;;5030827;28;20105;-81
2021/10/24 11:03:46;;;;;;;2.08;1.10;;;13.00;86.70;;;;;;5030271;28;20030;-81
2021/10/24 11:06:36;;;;;;;2.78;0.95;;;13.10;86.70;;;;;;5030160;28;20049;-81
2021/10/24 11:09:08;;;;;;;5.25;1.10;;;13.20;87.00;;;;;;5030609;28;20033;-81
2021/10/24 11:11:40;;;;;;;1.95;1.30;;;13.30;86.70;;;;;;5030231;28;20033;-81
2021/10/24 11:14:14;;;;;;;2.78;0.90;;;13.40;86.90;;;;;;5020760;28;20034;-82
2021/10/24 11:16:47;;;;;;;2.90;1.30;;;13.50;86.10;;;;;;5010874;28;20037;-81
2021/10/24 11:19:32;;;;;;;3.42;1.15;;;13.60;86.30;;;;;;5025473;28;20033;-81
2021/10/24 11:22:10;;;;;;;2.88;1.10;;;13.60;85.60;;;;;;5010767;28;20084;-81
2021/10/24 11:24:40;;;;;;;4.25;1.33;;;13.70;84.00;;;;;;5010879;28;20037;-81
2021/10/24 11:27:11;;;;;;;3.65;1.10;;;13.80;84.30;;;;;;5010709;28;20030;-82
2021/10/24 11:29:56;;;;;;;3.78;0.90;;;13.90;84.00;;;;;;5009933;28;20029;-82
2021/10/24 11:32:23;;;;;;;3.65;1.02;;;14.00;83.60;;;;;;5010429;28;20061;-81
2021/10/24 11:34:50;;;;;;;3.90;1.60;;;14.00;82.40;;;;;;5010224;28;20072;-82
2021/10/24 11:37:16;;;;;;;1.95;0.90;;;14.00;81.70;;;;;;5010753;28;20033;-82
2021/10/24 11:39:47;;;;;;;3.67;1.20;;;14.00;82.20;;;;;;5025024;28;20442;-82
2021/10/24 11:42:16;;;;;;;3.15;1.23;;;14.10;81.70;;;;;;5010648;28;20030;-82
2021/10/24 11:44:43;;;;;;;1.25;1.00;;;14.10;81.40;;;;;;5010498;28;20033;-82
2021/10/24 11:47:14;;;;;;;2.88;1.20;;;14.10;82.90;;;;;;5009921;28;20026;-81
2021/10/24 11:49:48;;;;;;;3.00;1.30;;;14.20;83.20;;;;;;5024699;28;20037;-81
2021/10/24 11:52:30;;;;;;;5.05;1.30;;;14.30;82.90;;;;;;5025077;28;20022;-82
2021/10/24 11:55:06;;;;;;;3.55;1.48;;;14.30;82.20;;;;;;5010520;28;20518;-81
2021/10/24 12:00:23;;;;;;;3.25;1.40;;;14.50;82.50;;;;;;4998697;28;20109;-82
2021/10/24 12:02:56;;;;;;;3.08;1.33;;;14.60;81.70;;;;;;5008865;28;20022;-81
2021/10/24 12:05:26;;;;;;;3.15;0.93;;;14.70;81.10;;;;;;5031274;28;20044;-82
2021/10/24 12:07:52;;;;;;;4.97;1.40;;;14.80;79.00;;;;;;5029325;28;20079;-82
2021/10/24 12:10:19;;;;;;;6.93;1.40;;;14.80;80.10;;;;;;5044799;28;20041;-82
2021/10/24 12:12:44;;;;;;;3.88;1.52;;;14.90;79.60;;;;;;5029684;28;20033;-82
2021/10/24 12:15:13;;;;;;;2.72;1.52;;;14.90;80.60;;;;;;5028065;28;20025;-82
2021/10/24 12:17:41;;;;;;;4.25;1.42;;;15.00;80.00;;;;;;5029733;28;20038;-82
2021/10/24 12:20:25;;;;;;;3.90;1.42;;;15.00;78.70;;;;;;5029658;28;20068;-83
2021/10/24 12:22:59;;;;;;;5.60;1.75;;;15.10;79.00;;;;;;5027906;28;20046;-81
2021/10/24 12:25:57;;;;;;;3.50;1.35;;;15.10;78.50;;;;;;5027879;28;20429;-81
2021/10/24 12:28:30;;;;;;;3.60;1.10;;;15.10;79.60;;;;;;5027898;28;20040;-82
2021/10/24 12:31:08;;;;;;;4.43;1.48;;;15.20;78.40;;;;;;5029393;28;20056;-82
2021/10/24 12:33:36;;;;;;;3.00;1.20;;;15.30;79.90;;;;;;5028594;28;20044;-81
2021/10/24 12:36:07;;;;;;;2.67;0.90;;;15.40;79.00;;;;;;5029465;28;20099;-81
2021/10/24 12:38:55;;;;;;;3.60;1.25;;;15.50;78.00;;;;;;5028904;28;20064;-81
2021/10/24 12:41:39;;;;;;;3.97;1.38;;;15.50;79.30;;;;;;5027644;28;20045;-80
2021/10/24 12:44:09;;;;;;;5.03;1.48;;;15.60;78.10;;;;;;5029480;28;20033;-80
2021/10/24 12:46:36;;;;;;;6.93;2.58;;;15.60;78.80;;;;;;5029319;28;20363;-80
2021/10/24 12:49:16;;;;;;;6.10;1.75;;;15.60;80.10;;;;;;5027513;28;20025;-81
2021/10/24 12:51:45;;;;;;;2.47;1.10;;;15.60;79.10;;;;;;5029230;28;20029;-80
2021/10/24 12:54:12;;;;;;;3.53;1.83;;;15.70;79.10;;;;;;5029144;28;20032;-81
2021/10/24 12:56:40;;;;;;;6.97;1.30;;;15.70;80.00;;;;;;5029194;28;20033;-81
2021/10/24 12:59:06;;;;;;;4.22;1.10;;;15.70;79.30;;;;;;5029434;28;20025;-80
2021/10/24 13:01:34;;;;;;;2.78;1.20;;;15.80;78.10;;;;;;5032763;28;20032;-83